Time;durP1;ratioP1;P1;durP2;ratioP2;P2;SDS_P1;SDS_P2;PMS_P1;PMS_P2;Temp;Humidity;BMP_temperature;BMP_pressure;BME280_temperature;BME280_humidity;BME280_pressure;Samples;Min_cycle;Max_cycle;Signal;HPM_P1;HPM_P2
2023/01/23 00:01:28;;;;;;;45.30;18.38;;;1.80;99.90;;;-148.53;100.00;63986.66;5005356;28;20072;-73
2023/01/23 00:03:55;;;;;;;43.60;17.77;;;1.80;99.90;;;-148.53;100.00;63986.66;5008864;28;20122;-74
2023/01/23 00:06:22;;;;;;;51.88;19.13;;;1.80;99.90;;;-148.53;100.00;63986.66;4999547;28;20048;-74
2023/01/23 00:08:48;;;;;;;49.55;17.98;;;1.80;99.90;;;-148.53;100.00;63986.66;5001835;28;20033;-74
2023/01/23 00:11:19;;;;;;;64.35;19.67;;;1.80;99.90;;;-148.53;100.00;63986.66;4995796;28;20441;-74
2023/01/23 00:13:45;;;;;;;60.47;19.45;;;1.80;99.90;;;-148.53;100.00;63986.66;5007026;28;20038;-74
2023/01/23 00:16:15;;;;;;;50.10;18.85;;;1.70;99.90;;;-148.53;100.00;63986.66;5005916;28;20343;-74
2023/01/23 00:18:41;;;;;;;48.33;18.38;;;1.70;99.90;;;-148.53;100.00;63986.66;4991499;28;20437;-74
2023/01/23 00:21:11;;;;;;;49.28;19.25;;;1.70;99.90;;;-148.53;100.00;63986.66;5004487;28;20041;-74
2023/01/23 00:23:37;;;;;;;50.65;18.33;;;1.70;99.90;;;-148.53;100.00;63986.66;5000518;28;20088;-74
2023/01/23 00:26:05;;;;;;;47.42;19.10;;;1.70;99.90;;;-148.53;100.00;63986.66;4998670;28;20093;-74
2023/01/23 00:28:31;;;;;;;51.92;19.77;;;1.70;99.90;;;-148.53;100.00;63986.66;4998828;28;20040;-74
2023/01/23 00:31:06;;;;;;;48.78;18.20;;;1.70;99.90;;;-148.53;100.00;63986.66;5004953;28;20054;-74
2023/01/23 00:33:32;;;;;;;52.13;18.70;;;1.70;99.90;;;-148.53;100.00;63986.66;5010177;28;20068;-74
2023/01/23 00:36:02;;;;;;;50.33;18.58;;;1.70;99.90;;;-148.53;100.00;63986.66;5009674;28;20092;-74
2023/01/23 00:38:31;;;;;;;45.67;18.73;;;1.70;99.90;;;-148.53;100.00;63986.66;5024982;28;20442;-73
2023/01/23 00:40:56;;;;;;;55.40;19.80;;;1.70;99.90;;;-148.53;100.00;63986.66;5003587;28;20112;-74
2023/01/23 00:43:23;;;;;;;51.83;17.48;;;1.70;99.90;;;-148.53;100.00;63986.66;5005871;28;20038;-74
2023/01/23 00:45:50;;;;;;;44.20;17.02;;;1.70;99.90;;;-148.53;100.00;63986.66;5003407;28;20041;-74
2023/01/23 00:48:16;;;;;;;39.83;16.50;;;1.80;99.90;;;-148.53;100.00;63986.66;5003852;28;20121;-73
2023/01/23 00:50:42;;;;;;;42.28;17.10;;;1.80;99.90;;;-148.53;100.00;63986.66;5008955;28;20546;-74
2023/01/23 00:53:08;;;;;;;41.20;17.25;;;1.80;99.90;;;-148.53;100.00;63986.66;5009992;28;20038;-74
2023/01/23 00:55:34;;;;;;;45.28;17.52;;;1.80;99.90;;;-148.53;100.00;63986.66;4990431;28;20031;-73
2023/01/23 00:57:59;;;;;;;37.65;16.02;;;1.80;99.90;;;-148.53;100.00;63986.66;4997802;28;20046;-74
2023/01/23 01:00:26;;;;;;;49.03;17.90;;;1.80;99.90;;;-148.53;100.00;63986.66;4998938;28;20086;-73
2023/01/23 01:02:51;;;;;;;50.40;17.75;;;1.80;99.90;;;-148.53;100.00;63986.66;4993265;28;20040;-74
2023/01/23 01:05:17;;;;;;;52.55;18.05;;;1.80;99.90;;;-148.53;100.00;63986.66;4999122;28;20030;-73
2023/01/23 01:07:46;;;;;;;41.75;16.33;;;1.80;99.90;;;-148.53;100.00;63986.66;4991196;28;20426;-73
2023/01/23 01:10:13;;;;;;;42.88;16.63;;;1.80;99.90;;;-148.53;100.00;63986.66;4996998;28;20038;-73
2023/01/23 01:12:38;;;;;;;55.15;17.48;;;1.70;99.90;;;-148.53;100.00;63986.66;4993121;28;20779;-73
2023/01/23 01:15:06;;;;;;;48.90;17.48;;;1.70;99.90;;;-148.53;100.00;63986.66;5009570;28;20042;-73
2023/01/23 01:17:32;;;;;;;51.50;16.45;;;1.70;99.90;;;-148.53;100.00;63986.66;5016528;28;20030;-73
2023/01/23 01:19:58;;;;;;;50.78;16.33;;;1.70;99.90;;;-148.53;100.00;63986.66;5015252;28;20038;-73
2023/01/23 01:22:24;;;;;;;46.70;15.98;;;1.70;99.90;;;-148.53;100.00;63986.66;5004349;28;20030;-73
2023/01/23 01:24:49;;;;;;;43.35;16.42;;;1.70;99.90;;;-148.53;100.00;63986.66;5002987;28;20398;-73
2023/01/23 01:27:15;;;;;;;37.92;15.55;;;1.70;99.90;;;-148.53;100.00;63986.66;5017178;28;20049;-73
2023/01/23 01:29:41;;;;;;;38.72;15.43;;;1.70;99.90;;;-148.53;100.00;63986.66;5006797;28;20042;-73
2023/01/23 01:32:07;;;;;;;35.67;14.23;;;1.70;99.90;;;-148.53;100.00;63986.66;5009628;28;20044;-73
2023/01/23 01:34:32;;;;;;;41.60;14.32;;;1.70;99.90;;;-148.53;100.00;63986.66;5008837;28;20084;-73
2023/01/23 01:36:59;;;;;;;36.15;14.25;;;1.70;99.90;;;-148.53;100.00;63986.66;5007721;28;20030;-74
2023/01/23 01:39:25;;;;;;;36.53;14.10;;;1.70;99.90;;;-148.53;100.00;63986.66;5012991;28;20037;-73
2023/01/23 01:41:54;;;;;;;41.45;15.73;;;1.70;99.90;;;-148.53;100.00;63986.66;4996400;28;20038;-74
2023/01/23 01:44:22;;;;;;;36.28;15.23;;;1.80;99.90;;;-148.53;100.00;63986.66;5010832;28;20502;-74
2023/01/23 01:46:49;;;;;;;39.63;15.43;;;1.70;99.90;;;-148.53;100.00;63986.66;5013261;28;20033;-74
2023/01/23 01:49:23;;;;;;;37.70;14.15;;;1.70;99.90;;;-148.53;100.00;63986.66;5013037;28;20045;-74
2023/01/23 01:52:11;;;;;;;42.17;14.50;;;1.70;99.90;;;-148.53;100.00;63986.66;4978503;28;20054;-74
2023/01/23 01:55:13;;;;;;;37.45;14.88;;;1.80;99.90;;;-148.53;100.00;63986.66;5010944;28;20037;-73
2023/01/23 01:57:44;;;;;;;37.22;14.30;;;1.80;99.90;;;-148.53;100.00;63986.66;4981123;28;20050;-73
2023/01/23 02:00:18;;;;;;;38.10;14.13;;;1.70;99.90;;;-148.53;100.00;63986.66;4996956;28;20053;-73
2023/01/23 02:02:50;;;;;;;47.17;15.52;;;1.70;99.90;;;-148.53;100.00;63986.66;4995844;28;20394;-73
2023/01/23 02:05:28;;;;;;;40.05;14.85;;;1.70;99.90;;;-148.53;100.00;63986.66;5011426;28;20401;-73
2023/01/23 02:08:32;;;;;;;37.63;15.20;;;1.70;99.90;;;-148.53;100.00;63986.66;4997072;28;20049;-73
2023/01/23 02:11:02;;;;;;;43.08;15.60;;;1.80;99.90;;;-148.53;100.00;63986.66;4995732;28;20548;-73
2023/01/23 02:13:35;;;;;;;44.58;16.33;;;1.80;99.90;;;-148.53;100.00;63986.66;5014333;28;20497;-73
2023/01/23 02:16:09;;;;;;;43.70;15.68;;;1.80;99.90;;;-148.53;100.00;63986.66;4993655;28;20458;-73
2023/01/23 02:18:42;;;;;;;39.17;14.27;;;1.80;99.90;;;-148.53;100.00;63986.66;4994773;28;20069;-74
2023/01/23 02:21:09;;;;;;;42.20;15.82;;;1.70;99.90;;;-148.53;100.00;63986.66;5013344;28;20474;-75
2023/01/23 02:23:59;;;;;;;45.47;15.80;;;1.80;99.90;;;-148.53;100.00;63986.66;5012346;28;20034;-75
2023/01/23 02:26:36;;;;;;;49.50;17.08;;;1.80;99.90;;;-148.53;100.00;63986.66;4995373;28;20037;-74
2023/01/23 02:29:05;;;;;;;45.35;16.13;;;1.80;99.90;;;-148.53;100.00;63986.66;5014303;28;20037;-75
2023/01/23 02:31:38;;;;;;;43.13;14.95;;;1.70;99.90;;;-148.53;100.00;63986.66;4996245;28;20114;-75
2023/01/23 02:34:04;;;;;;;45.80;16.80;;;1.70;99.90;;;-148.53;100.00;63986.66;4993424;28;20039;-74
2023/01/23 02:36:34;;;;;;;44.05;16.25;;;1.70;99.90;;;-148.53;100.00;63986.66;5010696;28;20042;-75
2023/01/23 02:39:16;;;;;;;48.60;15.90;;;1.70;99.90;;;-148.53;100.00;63986.66;5012193;28;20402;-75
2023/01/23 02:41:49;;;;;;;41.13;15.68;;;1.70;99.90;;;-148.53;100.00;63986.66;5000245;28;20087;-74
2023/01/23 02:44:26;;;;;;;55.17;16.23;;;1.70;99.90;;;-148.53;100.00;63986.66;5026687;28;20537;-75
2023/01/23 02:47:03;;;;;;;47.83;15.95;;;1.70;99.90;;;-148.53;100.00;63986.66;4994112;28;20907;-75
2023/01/23 02:49:30;;;;;;;52.97;17.38;;;1.80;99.90;;;-148.53;100.00;63986.66;5010529;28;20549;-74
2023/01/23 02:51:56;;;;;;;49.97;15.73;;;1.80;99.90;;;-148.53;100.00;63986.66;4996973;28;20054;-75
2023/01/23 02:54:23;;;;;;;47.83;15.07;;;1.80;99.90;;;-148.53;100.00;63986.66;4999404;28;20109;-75
2023/01/23 02:56:50;;;;;;;44.05;14.90;;;1.80;99.90;;;-148.53;100.00;63986.66;5008683;28;20112;-75
2023/01/23 03:02:03;;;;;;;51.13;16.20;;;1.80;99.90;;;-148.53;100.00;63986.66;4993333;28;20505;-75
2023/01/23 03:04:28;;;;;;;48.10;16.88;;;1.80;99.90;;;-148.53;100.00;63986.66;5006926;28;20370;-74
2023/01/23 03:06:54;;;;;;;45.83;15.88;;;1.80;99.90;;;-148.53;100.00;63986.66;5015676;28;20091;-75
2023/01/23 03:09:21;;;;;;;44.17;14.73;;;1.80;99.90;;;-148.53;100.00;63986.66;4992743;28;20038;-75
2023/01/23 03:11:47;;;;;;;47.53;15.50;;;1.80;99.90;;;-148.53;100.00;63986.66;5008437;28;20046;-74
2023/01/23 03:14:18;;;;;;;46.53;15.95;;;1.80;99.90;;;-148.53;100.00;63986.66;4992842;28;20509;-74
2023/01/23 03:16:49;;;;;;;47.40;16.33;;;1.80;99.90;;;-148.53;100.00;63986.66;4976625;28;20038;-75
2023/01/23 03:19:17;;;;;;;42.78;15.40;;;1.80;99.90;;;-148.53;100.00;63986.66;4999590;28;20061;-75
2023/01/23 03:21:43;;;;;;;42.55;15.43;;;1.80;99.90;;;-148.53;100.00;63986.66;4993587;28;20053;-75
2023/01/23 03:24:12;;;;;;;42.15;16.13;;;1.80;99.90;;;-148.53;100.00;63986.66;4995537;28;20471;-75
2023/01/23 03:26:42;;;;;;;53.38;17.25;;;1.80;99.90;;;-148.53;100.00;63986.66;5004390;28;20033;-75
2023/01/23 03:32:12;;;;;;;47.17;16.30;;;1.80;99.90;;;-148.53;100.00;63986.66;4992171;28;20404;-75
2023/01/23 03:34:38;;;;;;;44.88;15.68;;;1.80;99.90;;;-148.53;100.00;63986.66;5011073;28;20065;-75
2023/01/23 03:37:06;;;;;;;44.25;16.83;;;1.80;99.90;;;-148.53;100.00;63986.66;5015139;28;20147;-76
2023/01/23 03:42:21;;;;;;;39.65;16.38;;;1.80;99.90;;;-148.53;100.00;63986.66;4994226;28;20034;-75
2023/01/23 03:44:51;;;;;;;44.58;16.75;;;1.80;99.90;;;-148.53;100.00;63986.66;4996249;28;20177;-76
2023/01/23 03:47:19;;;;;;;41.80;15.50;;;1.80;99.90;;;-148.53;100.00;63986.66;5000953;28;20120;-76
2023/01/23 03:49:46;;;;;;;40.35;16.05;;;1.80;99.90;;;-148.53;100.00;63986.66;4995252;28;20565;-75
2023/01/23 03:52:12;;;;;;;42.72;16.65;;;1.80;99.90;;;-148.53;100.00;63986.66;5002544;28;20066;-75
2023/01/23 03:54:38;;;;;;;43.78;16.50;;;1.80;99.90;;;-148.53;100.00;63986.66;5003267;28;20061;-75
2023/01/23 03:57:07;;;;;;;41.22;15.90;;;1.80;99.90;;;-148.53;100.00;63986.66;4998708;28;20066;-75
2023/01/23 03:59:57;;;;;;;43.38;16.55;;;1.80;99.90;;;-148.53;100.00;63986.66;5019306;28;20095;-76
2023/01/23 04:02:28;;;;;;;41.53;15.75;;;1.80;99.90;;;-148.53;100.00;63986.66;5000480;28;20401;-76
2023/01/23 04:04:54;;;;;;;33.80;14.57;;;1.80;99.90;;;-148.53;100.00;63986.66;4980100;28;20090;-75
2023/01/23 04:07:20;;;;;;;34.45;15.13;;;1.80;99.90;;;-148.53;100.00;63986.66;5004882;28;20041;-75
2023/01/23 04:09:46;;;;;;;40.55;15.63;;;1.80;99.90;;;-148.53;100.00;63986.66;4996199;28;20225;-75
2023/01/23 04:12:13;;;;;;;34.95;13.93;;;1.80;99.90;;;-148.53;100.00;63986.66;5010570;28;20038;-76
2023/01/23 04:14:42;;;;;;;40.50;15.05;;;1.80;99.90;;;-148.53;100.00;63986.66;4993709;28;20077;-76
2023/01/23 04:17:09;;;;;;;35.95;15.05;;;1.70;99.90;;;-148.53;100.00;63986.66;4995120;28;20057;-76
2023/01/23 04:19:36;;;;;;;37.08;14.73;;;1.70;99.90;;;-148.53;100.00;63986.66;5002209;28;20384;-76
2023/01/23 04:22:03;;;;;;;39.22;14.77;;;1.70;99.90;;;-148.53;100.00;63986.66;5009085;28;20038;-76
2023/01/23 04:24:34;;;;;;;39.83;15.73;;;1.60;99.90;;;-148.53;100.00;63986.66;5001648;28;20041;-78
2023/01/23 04:27:00;;;;;;;35.70;14.82;;;1.70;99.90;;;-148.53;100.00;63986.66;4994739;28;20086;-75
2023/01/23 04:29:27;;;;;;;39.33;15.93;;;1.70;99.90;;;-148.53;100.00;63986.66;4992297;28;20058;-77
2023/01/23 04:31:53;;;;;;;35.13;15.60;;;1.70;99.90;;;-148.53;100.00;63986.66;4993960;28;20073;-77
2023/01/23 04:34:18;;;;;;;34.17;15.70;;;1.70;99.90;;;-148.53;100.00;63986.66;5010667;28;20026;-76
2023/01/23 04:36:45;;;;;;;38.83;15.35;;;1.70;99.90;;;-148.53;100.00;63986.66;5010438;28;20501;-76
2023/01/23 04:39:11;;;;;;;38.60;14.98;;;1.70;99.90;;;-148.53;100.00;63986.66;4994738;28;20050;-76
2023/01/23 04:41:40;;;;;;;42.30;16.48;;;1.70;99.90;;;-148.53;100.00;63986.66;5013166;28;20037;-76
2023/01/23 04:44:20;;;;;;;34.50;15.02;;;1.70;99.90;;;-148.53;100.00;63986.66;5011100;28;20058;-76
2023/01/23 04:47:18;;;;;;;33.47;14.88;;;1.70;99.90;;;-148.53;100.00;63986.66;4997713;28;20502;-74
2023/01/23 04:49:44;;;;;;;34.17;14.77;;;1.60;99.90;;;-148.53;100.00;63986.66;5005691;28;20080;-74
2023/01/23 04:52:09;;;;;;;37.65;14.93;;;1.60;99.90;;;-148.53;100.00;63986.66;5003689;28;20031;-73
2023/01/23 04:54:39;;;;;;;34.13;14.43;;;1.60;99.90;;;-148.53;100.00;63986.66;5010601;28;20478;-74
2023/01/23 04:57:05;;;;;;;34.38;14.85;;;1.60;99.90;;;-148.53;100.00;63986.66;4999770;28;20030;-74
2023/01/23 04:59:32;;;;;;;35.05;14.63;;;1.60;99.90;;;-148.53;100.00;63986.66;4996266;28;20445;-75
2023/01/23 05:01:57;;;;;;;33.40;15.25;;;1.60;99.90;;;-148.53;100.00;63986.66;5007154;28;20037;-74
2023/01/23 05:04:24;;;;;;;38.90;15.95;;;1.60;99.90;;;-148.53;100.00;63986.66;5001512;28;20378;-74
2023/01/23 05:06:50;;;;;;;42.55;15.45;;;1.60;99.90;;;-148.53;100.00;63986.66;5010863;28;20034;-75
2023/01/23 05:09:15;;;;;;;36.50;15.02;;;1.50;99.90;;;-148.53;100.00;63986.66;5007355;28;20034;-74
2023/01/23 05:11:50;;;;;;;34.30;15.73;;;1.60;99.90;;;-148.53;100.00;63986.66;4993948;28;20046;-74
2023/01/23 05:14:17;;;;;;;36.42;15.02;;;1.60;99.90;;;-148.53;100.00;63986.66;5010864;28;20027;-74
2023/01/23 05:16:45;;;;;;;39.53;15.95;;;1.60;99.90;;;-148.53;100.00;63986.66;5012218;28;20030;-74
2023/01/23 05:19:32;;;;;;;38.58;15.73;;;1.60;99.90;;;-148.53;100.00;63986.66;4997615;28;20113;-74
2023/01/23 05:22:00;;;;;;;33.42;14.80;;;1.60;99.90;;;-148.53;100.00;63986.66;5009599;28;20029;-74
2023/01/23 05:24:29;;;;;;;36.97;15.15;;;1.60;99.90;;;-148.53;100.00;63986.66;5029369;28;20052;-74
2023/01/23 05:26:56;;;;;;;35.15;14.70;;;1.60;99.90;;;-148.53;100.00;63986.66;5024231;28;20049;-74
2023/01/23 05:29:23;;;;;;;37.05;13.95;;;1.60;99.90;;;-148.53;100.00;63986.66;4994170;28;20441;-74
2023/01/23 05:31:59;;;;;;;31.45;13.38;;;1.60;99.90;;;-148.53;100.00;63986.66;5003328;28;20211;-74
2023/01/23 05:34:38;;;;;;;31.92;14.60;;;1.60;99.90;;;-148.53;100.00;63986.66;5011696;28;20229;-73
2023/01/23 05:37:13;;;;;;;38.10;14.77;;;1.60;99.90;;;-148.53;100.00;63986.66;4998536;28;20460;-73
2023/01/23 05:39:40;;;;;;;35.15;15.18;;;1.60;99.90;;;-148.53;100.00;63986.66;5008709;28;20084;-74
2023/01/23 05:42:06;;;;;;;38.53;15.52;;;1.60;99.90;;;-148.53;100.00;63986.66;5002952;28;20587;-74
2023/01/23 05:44:55;;;;;;;44.22;14.85;;;1.50;99.90;;;-148.53;100.00;63986.66;4990294;28;20045;-74
2023/01/23 05:47:28;;;;;;;42.20;15.15;;;1.50;99.90;;;-148.53;100.00;63986.66;5018654;28;20029;-74
2023/01/23 05:49:55;;;;;;;36.37;15.13;;;1.50;99.90;;;-148.53;100.00;63986.66;5012243;28;20034;-74
2023/01/23 05:52:24;;;;;;;38.92;15.43;;;1.50;99.90;;;-148.53;100.00;63986.66;4997931;28;20310;-74
2023/01/23 05:54:50;;;;;;;40.33;15.70;;;1.50;99.90;;;-148.53;100.00;63986.66;5012057;28;20474;-73
2023/01/23 05:57:18;;;;;;;35.90;16.02;;;1.40;99.90;;;-148.53;100.00;63986.66;4994669;28;20038;-74
2023/01/23 06:00:05;;;;;;;37.25;15.40;;;1.40;99.90;;;-148.53;100.00;63986.66;5002570;28;20045;-74
2023/01/23 06:02:55;;;;;;;39.30;16.35;;;1.40;99.90;;;-148.53;100.00;63986.66;4994308;28;20120;-74
2023/01/23 06:05:23;;;;;;;39.72;16.65;;;1.40;99.90;;;-148.53;100.00;63986.66;5001189;28;20512;-74
2023/01/23 06:08:00;;;;;;;39.95;16.25;;;1.50;99.90;;;-148.53;100.00;63986.66;5008584;28;20065;-74
2023/01/23 06:10:26;;;;;;;41.28;15.48;;;1.50;99.90;;;-148.53;100.00;63986.66;5013604;28;20066;-74
2023/01/23 06:12:52;;;;;;;41.75;15.48;;;1.50;99.90;;;-148.53;100.00;63986.66;5010611;28;20027;-74
2023/01/23 06:15:18;;;;;;;43.08;17.02;;;1.50;99.90;;;-148.53;100.00;63986.66;4993949;28;20034;-74
2023/01/23 06:17:44;;;;;;;46.17;16.73;;;1.60;99.90;;;-148.53;100.00;63986.66;5002289;28;20025;-73
2023/01/23 06:20:11;;;;;;;40.05;15.75;;;1.60;99.90;;;-148.53;100.00;63986.66;4995817;28;20054;-73
2023/01/23 06:22:38;;;;;;;40.80;17.00;;;1.60;99.90;;;-148.53;100.00;63986.66;4994161;28;20220;-73
2023/01/23 06:25:09;;;;;;;39.75;15.43;;;1.60;99.90;;;-148.53;100.00;63986.66;5026768;28;20061;-74
2023/01/23 06:27:35;;;;;;;36.15;15.27;;;1.60;99.90;;;-148.53;100.00;63986.66;4999204;28;20042;-74
2023/01/23 06:30:05;;;;;;;40.42;15.85;;;1.60;99.90;;;-148.53;100.00;63986.66;5009896;28;20049;-74
2023/01/23 06:32:35;;;;;;;37.20;14.95;;;1.60;99.90;;;-148.53;100.00;63986.66;5008666;28;20030;-75
2023/01/23 06:35:04;;;;;;;36.92;14.88;;;1.70;99.90;;;-148.53;100.00;63986.66;5001033;28;20035;-74
2023/01/23 06:37:34;;;;;;;42.75;16.10;;;1.60;99.90;;;-148.53;100.00;63986.66;5027033;28;20038;-74
2023/01/23 06:40:00;;;;;;;43.20;15.90;;;1.60;99.90;;;-148.53;100.00;63986.66;4983747;28;20066;-74
2023/01/23 06:42:26;;;;;;;38.60;15.38;;;1.50;99.90;;;-148.53;100.00;63986.66;4995537;28;20041;-74
2023/01/23 06:44:52;;;;;;;40.60;16.02;;;1.50;99.90;;;-148.53;100.00;63986.66;4993624;28;20545;-75
2023/01/23 06:47:22;;;;;;;40.13;15.05;;;1.40;99.90;;;-148.53;100.00;63986.66;5008015;28;20146;-74
2023/01/23 06:49:54;;;;;;;42.58;15.73;;;1.40;99.90;;;-148.53;100.00;63986.66;5000240;28;20033;-74
2023/01/23 06:52:21;;;;;;;43.53;14.70;;;1.40;99.90;;;-148.53;100.00;63986.66;5013914;28;20486;-74
2023/01/23 06:54:47;;;;;;;38.67;15.32;;;1.40;99.90;;;-148.53;100.00;63986.66;4998280;28;20041;-75
2023/01/23 06:57:13;;;;;;;42.35;15.73;;;1.50;99.90;;;-148.53;100.00;63986.66;5002194;28;20058;-74
2023/01/23 06:59:39;;;;;;;41.45;15.65;;;1.50;99.90;;;-148.53;100.00;63986.66;4998684;28;20059;-73
2023/01/23 07:02:10;;;;;;;38.95;16.42;;;1.50;99.90;;;-148.53;100.00;63986.66;5009289;28;20053;-73
2023/01/23 07:04:41;;;;;;;42.42;15.93;;;1.50;99.90;;;-148.53;100.00;63986.66;4993906;28;20117;-74
2023/01/23 07:07:07;;;;;;;35.60;15.05;;;1.50;99.90;;;-148.53;100.00;63986.66;4997551;28;20117;-73
2023/01/23 07:09:33;;;;;;;43.70;16.77;;;1.60;99.90;;;-148.53;100.00;63986.66;5009639;28;20083;-73
2023/01/23 07:12:05;;;;;;;42.60;17.13;;;1.60;99.90;;;-148.53;100.00;63986.66;4993322;28;20053;-73
2023/01/23 07:14:31;;;;;;;35.75;16.08;;;1.60;99.90;;;-148.53;100.00;63986.66;4996409;28;20136;-74
2023/01/23 07:16:57;;;;;;;38.45;16.10;;;1.60;99.90;;;-148.53;100.00;63986.66;5009087;28;20049;-73
2023/01/23 07:19:24;;;;;;;37.88;15.73;;;1.60;99.90;;;-148.53;100.00;63986.66;5018438;28;20039;-74
2023/01/23 07:21:50;;;;;;;38.33;15.98;;;1.60;99.90;;;-148.53;100.00;63986.66;5009888;28;20041;-74
2023/01/23 07:24:16;;;;;;;35.65;15.88;;;1.60;99.90;;;-148.53;100.00;63986.66;4988152;28;20046;-73
2023/01/23 07:26:41;;;;;;;42.13;16.63;;;1.60;99.90;;;-148.53;100.00;63986.66;4980348;28;20429;-72
2023/01/23 07:29:08;;;;;;;38.45;16.48;;;1.60;99.90;;;-148.53;100.00;63986.66;5006892;28;20034;-74
2023/01/23 07:31:34;;;;;;;35.60;16.67;;;1.60;99.90;;;-148.53;100.00;63986.66;5015184;28;20101;-73
2023/01/23 07:34:00;;;;;;;37.05;16.25;;;1.60;99.90;;;-148.53;100.00;63986.66;5026864;28;20481;-74
2023/01/23 07:36:27;;;;;;;38.22;15.10;;;1.60;99.90;;;-148.53;100.00;63986.66;5011050;28;20044;-74
2023/01/23 07:39:05;;;;;;;36.50;14.85;;;1.60;99.90;;;-148.53;100.00;63986.66;5010662;28;20042;-75
2023/01/23 07:41:39;;;;;;;40.28;16.67;;;1.70;99.90;;;-148.53;100.00;63986.66;5011570;28;20370;-74
2023/01/23 07:44:07;;;;;;;39.63;16.10;;;1.70;99.90;;;-148.53;100.00;63986.66;4993916;28;20042;-74
2023/01/23 07:46:32;;;;;;;31.88;14.93;;;1.70;99.90;;;-148.53;100.00;63986.66;5001007;28;20117;-74
2023/01/23 07:48:58;;;;;;;36.05;15.07;;;1.70;99.90;;;-148.53;100.00;63986.66;5003902;28;20180;-74
2023/01/23 07:51:24;;;;;;;34.97;15.43;;;1.70;99.90;;;-148.53;100.00;63986.66;5006559;28;20046;-74
2023/01/23 07:53:49;;;;;;;34.10;14.80;;;1.70;99.90;;;-148.53;100.00;63986.66;5001938;28;20038;-74
2023/01/23 07:56:15;;;;;;;37.15;15.73;;;1.70;99.90;;;-148.53;100.00;63986.66;4999936;28;20038;-74
2023/01/23 07:58:41;;;;;;;38.05;15.82;;;1.80;99.90;;;-148.53;100.00;63986.66;4976577;28;20030;-74
2023/01/23 08:01:11;;;;;;;37.75;16.15;;;1.80;99.90;;;-148.53;100.00;63986.66;4994645;28;20092;-74
2023/01/23 08:03:36;;;;;;;38.75;15.93;;;1.80;99.90;;;-148.53;100.00;63986.66;5003893;28;20096;-73
2023/01/23 08:06:02;;;;;;;33.88;14.77;;;1.80;99.90;;;-148.53;100.00;63986.66;5005322;28;20049;-74
2023/01/23 08:08:29;;;;;;;38.92;16.42;;;1.80;99.90;;;-148.53;100.00;63986.66;4996309;28;20088;-74
2023/01/23 08:10:55;;;;;;;39.80;16.48;;;1.80;99.90;;;-148.53;100.00;63986.66;5010457;28;20038;-75
2023/01/23 08:13:20;;;;;;;40.30;16.10;;;1.80;99.90;;;-148.53;100.00;63986.66;5023405;28;20101;-74
2023/01/23 08:15:46;;;;;;;33.45;15.02;;;1.80;99.90;;;-148.53;100.00;63986.66;4986759;28;20379;-74
2023/01/23 08:18:12;;;;;;;40.53;16.55;;;1.90;99.90;;;-148.53;100.00;63986.66;5009978;28;20508;-74
2023/01/23 08:20:38;;;;;;;39.40;16.80;;;1.90;99.90;;;-148.53;100.00;63986.66;5010318;28;20038;-74
2023/01/23 08:23:04;;;;;;;38.38;15.85;;;1.90;99.90;;;-148.53;100.00;63986.66;4999595;28;20054;-74
2023/01/23 08:25:30;;;;;;;34.92;14.95;;;1.90;99.90;;;-148.53;100.00;63986.66;4990314;28;20474;-74
2023/01/23 08:27:56;;;;;;;34.47;16.23;;;1.90;99.90;;;-148.53;100.00;63986.66;5015016;28;20046;-74
2023/01/23 08:30:22;;;;;;;38.17;16.63;;;2.00;99.90;;;-148.53;100.00;63986.66;5007808;28;20049;-73
2023/01/23 08:32:47;;;;;;;36.08;15.95;;;2.00;99.90;;;-148.53;100.00;63986.66;5010368;28;20033;-74
2023/01/23 08:35:13;;;;;;;38.78;15.65;;;2.00;99.90;;;-148.53;100.00;63986.66;5010655;28;20509;-73
2023/01/23 08:37:40;;;;;;;34.50;16.25;;;2.00;99.90;;;-148.53;100.00;63986.66;5000675;28;20037;-72
2023/01/23 08:40:07;;;;;;;36.37;15.43;;;2.10;99.90;;;-148.53;100.00;63986.66;5006428;28;20046;-73
2023/01/23 08:42:33;;;;;;;38.17;16.35;;;2.10;99.90;;;-148.53;100.00;63986.66;5007195;28;20798;-72
2023/01/23 08:44:58;;;;;;;36.03;15.70;;;2.20;99.90;;;-148.53;100.00;63986.66;4998540;28;20046;-72
2023/01/23 08:47:24;;;;;;;38.47;16.23;;;2.20;99.90;;;-148.53;100.00;63986.66;5002765;28;20026;-73
2023/01/23 08:49:50;;;;;;;37.05;15.88;;;2.20;99.90;;;-148.53;100.00;63986.66;5004750;28;20053;-73
2023/01/23 08:52:15;;;;;;;39.28;15.75;;;2.20;99.90;;;-148.53;100.00;63986.66;5009509;28;20052;-73
2023/01/23 08:54:41;;;;;;;41.90;17.35;;;2.20;99.90;;;-148.53;100.00;63986.66;5013765;28;20042;-73
2023/01/23 08:57:07;;;;;;;31.73;15.07;;;2.20;99.90;;;-148.53;100.00;63986.66;5007992;28;20038;-73
2023/01/23 08:59:33;;;;;;;39.20;16.02;;;2.20;99.90;;;-148.53;100.00;63986.66;5004610;28;20482;-72
2023/01/23 09:01:58;;;;;;;35.70;16.08;;;2.20;99.90;;;-148.53;100.00;63986.66;4993449;28;20050;-74
2023/01/23 09:04:25;;;;;;;34.47;15.80;;;2.30;99.90;;;-148.53;100.00;63986.66;5004090;28;20022;-72
2023/01/23 09:06:50;;;;;;;32.35;14.75;;;2.30;99.90;;;-148.53;100.00;63986.66;5009539;28;20041;-72
2023/01/23 09:09:17;;;;;;;34.63;15.88;;;2.30;99.90;;;-148.53;100.00;63986.66;5010056;28;20083;-72
2023/01/23 09:11:42;;;;;;;35.47;15.43;;;2.30;99.90;;;-148.53;100.00;63986.66;5009838;28;20161;-73
2023/01/23 09:14:08;;;;;;;38.30;16.23;;;2.30;99.90;;;-148.53;100.00;63986.66;5009454;28;20046;-73
2023/01/23 09:16:34;;;;;;;36.97;15.85;;;2.30;99.90;;;-148.53;100.00;63986.66;4997062;28;20057;-73
2023/01/23 09:18:59;;;;;;;32.80;15.50;;;2.40;99.90;;;-148.53;100.00;63986.66;5004878;28;20067;-72
2023/01/23 09:21:25;;;;;;;35.72;15.50;;;2.40;99.90;;;-148.53;100.00;63986.66;5003317;28;20062;-73
2023/01/23 09:23:51;;;;;;;35.60;15.95;;;2.40;99.90;;;-148.53;100.00;63986.66;4999860;28;20042;-73
2023/01/23 09:26:17;;;;;;;34.83;14.82;;;2.30;99.90;;;-148.53;100.00;63986.66;5001659;28;20088;-73
2023/01/23 09:28:43;;;;;;;33.13;15.05;;;2.30;99.90;;;-148.53;100.00;63986.66;4998955;28;20116;-73
2023/01/23 09:31:12;;;;;;;34.35;15.13;;;2.20;99.90;;;-148.53;100.00;63986.66;5007531;28;20048;-74
2023/01/23 09:33:37;;;;;;;32.30;15.13;;;2.10;99.90;;;-148.53;100.00;63986.66;5009754;28;20042;-75
2023/01/23 09:36:04;;;;;;;37.60;16.15;;;2.10;99.90;;;-148.53;100.00;63986.66;5002340;28;20042;-73
2023/01/23 09:38:32;;;;;;;35.63;15.55;;;2.00;99.90;;;-148.53;100.00;63986.66;5007383;28;20152;-73
2023/01/23 09:41:05;;;;;;;;;;;2.00;99.90;;;-148.53;100.00;63986.66;5022583;28;20034;-74
2023/01/23 09:43:31;;;;;;;36.28;14.75;;;2.10;99.90;;;-148.53;100.00;63986.66;5025942;28;20377;-73
2023/01/23 09:46:39;;;;;;;35.05;16.30;;;2.20;99.90;;;-148.53;100.00;63986.66;5013279;28;20041;-73
2023/01/23 09:49:29;;;;;;;34.58;14.77;;;2.30;99.90;;;-148.53;100.00;63986.66;5010367;28;20054;-73
2023/01/23 09:52:04;;;;;;;33.75;14.40;;;2.40;99.90;;;-148.53;100.00;63986.66;5022293;28;20049;-74
2023/01/23 09:54:54;;;;;;;32.85;13.82;;;2.50;99.90;;;-148.53;100.00;63986.66;5011835;28;20026;-74
2023/01/23 09:57:32;;;;;;;33.40;14.90;;;2.60;99.90;;;-148.53;100.00;63986.66;5010894;28;20057;-74
2023/01/23 10:00:23;;;;;;;29.48;14.20;;;2.70;99.90;;;-148.53;100.00;63986.66;5008826;28;20048;-73
2023/01/23 10:02:50;;;;;;;32.30;15.35;;;2.80;99.90;;;-148.53;100.00;63986.66;5013106;28;20129;-73
2023/01/23 10:05:19;;;;;;;29.27;14.75;;;2.80;99.90;;;-148.53;100.00;63986.66;5010818;28;20155;-74
2023/01/23 10:08:18;;;;;;;33.35;15.13;;;2.80;99.90;;;-148.53;100.00;63986.66;5008900;28;20172;-74
2023/01/23 10:10:56;;;;;;;31.42;14.18;;;2.90;99.90;;;-148.53;100.00;63986.66;5008767;28;20056;-74